createdAt,value
2023-04-19T00:00:46.467Z,8.84
2023-04-19T00:03:13.711Z,8.88
2023-04-19T00:05:40.837Z,8.94
2023-04-19T00:08:07.084Z,8.98
2023-04-19T00:10:35.158Z,8.89
2023-04-19T00:13:01.636Z,8.90
2023-04-19T00:15:27.641Z,8.95
2023-04-19T00:17:53.503Z,8.94
2023-04-19T00:20:21.248Z,8.96
2023-04-19T00:22:47.497Z,8.90
2023-04-19T00:25:13.384Z,8.92
2023-04-19T00:27:39.451Z,8.89
2023-04-19T00:30:05.835Z,8.90
2023-04-19T00:32:31.646Z,8.93
2023-04-19T00:34:57.486Z,8.92
2023-04-19T00:37:23.398Z,8.90
2023-04-19T00:39:49.415Z,8.83
2023-04-19T00:42:15.241Z,8.77
2023-04-19T00:44:41.593Z,8.77
2023-04-19T00:47:08.158Z,8.77
2023-04-19T00:49:34.051Z,8.75
2023-04-19T00:52:00.030Z,8.82
2023-04-19T00:54:26.211Z,8.73
2023-04-19T00:56:52.485Z,8.61
2023-04-19T00:59:18.704Z,8.73
2023-04-19T01:01:44.854Z,8.68
2023-04-19T01:04:10.906Z,8.70
2023-04-19T01:06:39.623Z,8.71
2023-04-19T01:09:05.536Z,8.58
2023-04-19T01:11:31.531Z,8.59
2023-04-19T01:13:57.979Z,8.56
2023-04-19T01:16:26.032Z,8.60
2023-04-19T01:18:52.289Z,8.57
2023-04-19T01:21:18.072Z,8.60
2023-04-19T01:23:44.293Z,8.71
2023-04-19T01:26:10.375Z,8.58
2023-04-19T01:28:36.911Z,8.49
2023-04-19T01:31:03.163Z,8.48
2023-04-19T01:33:28.970Z,8.51
2023-04-19T01:35:54.952Z,8.53
2023-04-19T01:38:20.857Z,8.49
2023-04-19T01:40:46.927Z,8.42
2023-04-19T01:43:13.827Z,8.48
2023-04-19T01:45:39.788Z,8.52
2023-04-19T01:48:06.088Z,8.50
2023-04-19T01:50:32.158Z,8.53
2023-04-19T01:52:59.045Z,8.52
2023-04-19T01:55:25.202Z,8.57
2023-04-19T01:57:54.708Z,8.56
2023-04-19T02:00:21.581Z,8.43
2023-04-19T02:02:47.959Z,8.42
2023-04-19T02:05:13.898Z,8.47
2023-04-19T02:07:39.728Z,8.46
2023-04-19T02:10:08.761Z,8.56
2023-04-19T02:12:35.841Z,8.32
2023-04-19T02:15:01.628Z,8.33
2023-04-19T02:17:27.824Z,8.38
2023-04-19T02:19:53.868Z,8.41
2023-04-19T02:22:20.252Z,8.25
2023-04-19T02:24:46.619Z,8.22
2023-04-19T02:27:12.849Z,8.28
2023-04-19T02:29:39.380Z,8.11
2023-04-19T02:32:08.130Z,8.00
2023-04-19T02:34:34.581Z,7.96
2023-04-19T02:37:01.019Z,7.97
2023-04-19T02:39:26.901Z,8.03
2023-04-19T02:41:52.934Z,8.11
2023-04-19T02:44:19.221Z,8.20
2023-04-19T02:46:49.734Z,8.17
2023-04-19T02:49:16.192Z,8.10
2023-04-19T02:51:41.977Z,7.99
2023-04-19T02:54:07.762Z,7.94
2023-04-19T02:56:33.576Z,7.89
2023-04-19T02:59:03.780Z,7.87
2023-04-19T03:01:32.766Z,7.98
2023-04-19T03:03:58.867Z,8.08
2023-04-19T03:06:25.439Z,8.05
2023-04-19T03:08:51.498Z,8.06
2023-04-19T03:11:17.717Z,8.02
2023-04-19T03:13:43.736Z,8.07
2023-04-19T03:16:09.884Z,8.09
2023-04-19T03:18:35.901Z,8.21
2023-04-19T03:21:02.533Z,8.16
2023-04-19T03:23:28.669Z,8.08
2023-04-19T03:25:54.494Z,8.07
2023-04-19T03:28:20.377Z,8.09
2023-04-19T03:30:46.174Z,8.18
2023-04-19T03:33:12.065Z,8.07
2023-04-19T03:35:38.014Z,8.06
2023-04-19T03:38:03.944Z,8.09
2023-04-19T03:40:32.152Z,8.12
2023-04-19T03:42:57.960Z,8.07
2023-04-19T03:45:23.881Z,7.99
2023-04-19T03:47:49.691Z,8.06
2023-04-19T03:50:15.635Z,8.10
2023-04-19T03:52:41.459Z,8.10
2023-04-19T03:55:07.984Z,8.12
2023-04-19T03:57:33.761Z,8.03
2023-04-19T03:59:59.790Z,8.01
2023-04-19T04:02:25.638Z,7.92
2023-04-19T04:04:54.876Z,8.05
2023-04-19T04:07:22.400Z,8.09
2023-04-19T04:09:48.864Z,8.19
2023-04-19T04:12:14.828Z,8.19
2023-04-19T04:14:40.617Z,8.16
2023-04-19T04:17:06.738Z,7.99
2023-04-19T04:19:32.574Z,8.09
2023-04-19T04:21:58.423Z,8.13
2023-04-19T04:24:25.437Z,8.09
2023-04-19T04:26:51.285Z,8.09
2023-04-19T04:29:17.412Z,8.03
2023-04-19T04:31:43.341Z,8.01
2023-04-19T04:34:09.336Z,8.07
2023-04-19T04:36:38.830Z,8.10
2023-04-19T04:39:05.623Z,8.10
2023-04-19T04:41:31.585Z,8.09
2023-04-19T04:44:22.541Z,8.07
2023-04-19T04:46:43.569Z,8.02
2023-04-19T04:49:09.438Z,8.07
2023-04-19T04:51:36.489Z,8.11
2023-04-19T04:54:02.630Z,7.95
2023-04-19T04:56:28.428Z,7.94
2023-04-19T04:58:54.292Z,7.88
2023-04-19T05:01:21.431Z,7.86
2023-04-19T05:03:47.352Z,7.86
2023-04-19T05:06:13.666Z,7.77
2023-04-19T05:08:39.554Z,7.80
2023-04-19T05:11:05.413Z,7.79
2023-04-19T05:13:31.202Z,7.80
2023-04-19T05:15:57.049Z,7.79
2023-04-19T05:18:22.913Z,7.86
2023-04-19T05:20:48.751Z,7.74
2023-04-19T05:23:14.691Z,7.81
2023-04-19T05:25:40.595Z,7.84
2023-04-19T05:28:06.442Z,7.76
2023-04-19T05:30:32.211Z,7.65
2023-04-19T05:32:58.467Z,7.76
2023-04-19T05:35:24.245Z,7.65
2023-04-19T05:37:50.070Z,7.72
2023-04-19T05:40:15.953Z,7.78
2023-04-19T05:42:41.990Z,7.84
2023-04-19T05:45:08.299Z,7.83
2023-04-19T05:47:34.246Z,7.94
2023-04-19T05:50:00.210Z,7.89
2023-04-19T05:52:26.944Z,7.88
2023-04-19T05:54:52.772Z,8.00
2023-04-19T05:57:18.604Z,7.91
2023-04-19T05:59:44.533Z,7.84
2023-04-19T06:02:10.479Z,7.92
2023-04-19T06:04:36.454Z,7.87
2023-04-19T06:07:04.453Z,7.93
2023-04-19T06:09:30.699Z,7.96
2023-04-19T06:11:57.239Z,8.19
2023-04-19T06:14:23.186Z,8.10
2023-04-19T06:16:49.145Z,8.09
2023-04-19T06:19:15.230Z,8.16
2023-04-19T06:21:41.137Z,8.17
2023-04-19T06:24:07.162Z,8.10
2023-04-19T06:26:32.996Z,8.16
2023-04-19T06:28:58.776Z,8.26
2023-04-19T06:31:24.750Z,8.16
2023-04-19T06:33:50.551Z,8.21
2023-04-19T06:36:16.491Z,8.16
2023-04-19T06:38:43.921Z,8.26
2023-04-19T06:41:10.113Z,8.18
2023-04-19T06:43:36.052Z,8.06
2023-04-19T06:46:03.965Z,8.18
2023-04-19T06:48:30.225Z,8.19
2023-04-19T06:50:56.463Z,8.20
2023-04-19T06:53:22.685Z,8.07
2023-04-19T06:55:48.778Z,8.16
2023-04-19T06:58:14.599Z,8.10
2023-04-19T07:00:40.448Z,8.11
2023-04-19T07:03:06.346Z,8.16
2023-04-19T07:05:32.168Z,8.02
2023-04-19T07:07:58.115Z,8.02
2023-04-19T07:10:23.993Z,8.16
2023-04-19T07:12:50.832Z,8.11
2023-04-19T07:15:16.718Z,8.12
2023-04-19T07:17:42.562Z,8.23
2023-04-19T07:20:08.751Z,8.26
2023-04-19T07:22:34.900Z,8.30
2023-04-19T07:25:00.862Z,8.28
2023-04-19T07:27:26.968Z,8.37
2023-04-19T07:29:52.911Z,8.31
2023-04-19T07:32:19.077Z,8.33
2023-04-19T07:34:45.477Z,8.36
2023-04-19T07:37:12.161Z,8.39
2023-04-19T07:39:41.073Z,8.42
2023-04-19T07:42:06.962Z,8.31
2023-04-19T07:44:32.739Z,8.38
2023-04-19T07:46:58.783Z,8.41
2023-04-19T07:49:24.772Z,8.42
2023-04-19T07:51:50.667Z,8.46
2023-04-19T07:54:19.368Z,8.45
2023-04-19T07:56:45.582Z,8.39
2023-04-19T07:59:11.389Z,8.55
2023-04-19T08:01:37.397Z,8.54
2023-04-19T08:04:04.052Z,8.65
2023-04-19T08:06:31.123Z,8.76
2023-04-19T08:08:56.925Z,8.78
2023-04-19T08:11:24.341Z,8.67
2023-04-19T08:14:02.579Z,8.59
2023-04-19T08:17:14.537Z,8.61
2023-04-19T08:19:18.182Z,8.65
2023-04-19T08:21:43.937Z,8.65
2023-04-19T08:24:09.720Z,8.70
2023-04-19T08:26:35.600Z,8.85
2023-04-19T08:29:02.560Z,8.72
2023-04-19T08:31:28.484Z,8.83
2023-04-19T08:33:54.518Z,8.95
2023-04-19T08:36:32.542Z,9.02
2023-04-19T08:39:06.887Z,9.26
2023-04-19T08:41:36.560Z,9.18
2023-04-19T08:44:03.173Z,9.14
2023-04-19T08:46:30.736Z,9.02
2023-04-19T08:48:58.396Z,9.22
2023-04-19T08:51:26.148Z,9.24
2023-04-19T08:53:54.236Z,9.24
2023-04-19T08:56:31.903Z,9.33
2023-04-19T08:59:19.308Z,9.34
2023-04-19T09:01:45.919Z,9.43
2023-04-19T09:04:34.847Z,9.45
2023-04-19T09:06:57.551Z,9.53
2023-04-19T09:09:37.044Z,9.70
2023-04-19T09:12:16.948Z,9.70
2023-04-19T09:14:59.969Z,10.00
2023-04-19T09:17:27.581Z,9.93
2023-04-19T09:19:53.427Z,9.95
2023-04-19T09:22:19.307Z,10.01
2023-04-19T09:27:35.569Z,9.81
2023-04-19T09:30:04.873Z,10.00
2023-04-19T09:32:46.683Z,10.21
2023-04-19T09:35:12.644Z,10.20
2023-04-19T09:38:01.922Z,10.26
2023-04-19T09:40:27.188Z,10.26
2023-04-19T09:48:08.782Z,10.39
2023-04-19T09:50:46.757Z,10.65
2023-04-19T09:53:20.717Z,10.58
2023-04-19T09:55:59.672Z,10.68
2023-04-19T09:58:34.440Z,10.60
2023-04-19T10:01:14.243Z,10.65
2023-04-19T10:03:45.145Z,10.95
2023-04-19T10:06:40.099Z,11.20
2023-04-19T10:09:03.637Z,11.24
2023-04-19T10:11:37.814Z,11.42
2023-04-19T10:14:08.670Z,11.53
2023-04-19T10:16:36.151Z,11.87
2023-04-19T10:19:05.403Z,12.35
2023-04-19T10:21:32.611Z,12.41
2023-04-19T10:23:59.303Z,12.40
2023-04-19T10:26:25.303Z,12.12
2023-04-19T10:28:53.138Z,12.42
2023-04-19T10:31:23.082Z,12.20
2023-04-19T10:33:50.938Z,12.40
2023-04-19T10:36:18.073Z,12.43
2023-04-19T10:38:48.991Z,12.65
2023-04-19T10:41:17.413Z,12.91
2023-04-19T10:44:07.728Z,13.61
2023-04-19T10:46:35.221Z,13.70
2023-04-19T10:49:02.860Z,14.14
2023-04-19T10:51:36.442Z,13.75
2023-04-19T10:54:03.803Z,13.63
2023-04-19T10:56:35.427Z,13.81
2023-04-19T10:59:01.256Z,13.85
2023-04-19T11:01:37.487Z,14.04
2023-04-19T11:04:03.890Z,14.13
2023-04-19T11:06:30.253Z,13.60
2023-04-19T11:08:56.968Z,14.22
2023-04-19T11:11:24.931Z,14.06
2023-04-19T11:14:01.691Z,14.20
2023-04-19T11:16:42.001Z,14.34
2023-04-19T11:19:18.419Z,14.45
2023-04-19T11:21:45.693Z,14.17
2023-04-19T11:24:12.452Z,14.65
2023-04-19T11:26:38.440Z,15.07
2023-04-19T11:29:12.130Z,14.84
2023-04-19T11:31:59.528Z,14.86
2023-04-19T11:34:44.313Z,15.29
2023-04-19T11:37:11.144Z,15.06
2023-04-19T11:39:45.663Z,15.25
2023-04-19T11:42:18.710Z,16.09
2023-04-19T11:44:51.716Z,16.01
2023-04-19T11:47:19.360Z,15.67
2023-04-19T11:49:45.453Z,15.69
2023-04-19T11:52:11.247Z,15.55
2023-04-19T11:54:37.072Z,15.41
2023-04-19T11:57:07.791Z,15.25
2023-04-19T11:59:35.243Z,15.31
2023-04-19T12:02:12.054Z,15.37
2023-04-19T12:04:38.886Z,15.46
2023-04-19T12:07:06.248Z,15.19
2023-04-19T12:09:36.165Z,15.44
2023-04-19T12:12:02.545Z,15.23
2023-04-19T12:14:29.656Z,15.58
2023-04-19T12:17:10.281Z,15.96
2023-04-19T12:19:43.954Z,15.46
2023-04-19T12:22:14.932Z,16.00
2023-04-19T12:24:41.415Z,15.99
2023-04-19T12:27:07.923Z,16.64
2023-04-19T12:29:34.292Z,16.42
2023-04-19T12:32:00.698Z,15.96
2023-04-19T12:34:27.115Z,16.14
2023-04-19T12:36:53.458Z,16.32
2023-04-19T12:39:19.386Z,16.44
2023-04-19T12:41:47.559Z,16.30
2023-04-19T12:44:14.128Z,16.59
2023-04-19T12:46:40.180Z,17.00
2023-04-19T12:49:06.026Z,17.14
2023-04-19T12:51:32.039Z,16.86
2023-04-19T12:53:57.983Z,16.81
2023-04-19T12:56:23.879Z,16.70
2023-04-19T12:58:49.629Z,16.49
2023-04-19T13:01:15.541Z,16.16
2023-04-19T13:03:41.504Z,16.16
2023-04-19T13:06:07.412Z,16.30
2023-04-19T13:08:41.485Z,16.28
2023-04-19T13:11:09.579Z,16.45
2023-04-19T13:13:35.403Z,16.49
2023-04-19T13:16:01.372Z,16.54
2023-04-19T13:18:27.211Z,16.46
2023-04-19T13:20:57.230Z,16.13
2023-04-19T13:23:23.063Z,16.04
2023-04-19T13:25:48.839Z,16.11
2023-04-19T13:28:14.662Z,16.30
2023-04-19T13:30:40.448Z,16.17
2023-04-19T13:33:08.241Z,16.19
2023-04-19T13:35:34.802Z,16.39
2023-04-19T13:38:00.657Z,16.37
2023-04-19T13:40:26.452Z,15.99
2023-04-19T13:42:54.227Z,16.06
2023-04-19T13:45:20.314Z,16.72
2023-04-19T13:47:46.262Z,16.61
2023-04-19T13:50:13.230Z,16.19
2023-04-19T13:52:39.084Z,15.81
2023-04-19T13:55:05.146Z,15.80
2023-04-19T13:57:30.882Z,15.82
2023-04-19T13:59:56.679Z,16.10
2023-04-19T14:02:22.678Z,16.19
2023-04-19T14:04:48.760Z,16.09
2023-04-19T14:07:14.551Z,15.76
2023-04-19T14:09:41.701Z,15.57
2023-04-19T14:12:08.498Z,15.63
2023-04-19T14:14:34.296Z,15.52
2023-04-19T14:17:00.163Z,15.47
2023-04-19T14:19:26.065Z,15.07
2023-04-19T14:21:51.852Z,15.38
2023-04-19T14:24:17.925Z,15.64
2023-04-19T14:26:44.052Z,15.45
2023-04-19T14:29:10.025Z,14.83
2023-04-19T14:31:35.923Z,14.98
2023-04-19T14:34:01.734Z,15.01
2023-04-19T14:36:27.650Z,15.43
2023-04-19T14:38:53.539Z,15.65
2023-04-19T14:41:19.313Z,15.62
2023-04-19T14:43:45.491Z,15.02
2023-04-19T14:46:11.496Z,15.40
2023-04-19T14:48:37.412Z,15.83
2023-04-19T14:51:03.354Z,16.07
2023-04-19T14:53:29.202Z,15.96
2023-04-19T14:55:55.071Z,15.83
2023-04-19T14:58:20.877Z,15.89
2023-04-19T15:00:46.671Z,16.12
2023-04-19T15:03:12.661Z,15.91
2023-04-19T15:05:38.559Z,15.82
2023-04-19T15:08:04.762Z,15.49
2023-04-19T15:10:30.730Z,15.48
2023-04-19T15:12:57.294Z,15.62
2023-04-19T15:15:23.109Z,15.41
2023-04-19T15:17:48.987Z,15.80
2023-04-19T15:20:14.909Z,15.57
2023-04-19T15:22:41.212Z,15.35
2023-04-19T15:25:07.365Z,15.13
2023-04-19T15:27:33.669Z,15.26
2023-04-19T15:29:59.498Z,15.47
2023-04-19T15:32:25.689Z,15.56
2023-04-19T15:34:51.553Z,15.38
2023-04-19T15:37:17.339Z,15.36
2023-04-19T15:39:43.176Z,15.64
2023-04-19T15:42:09.093Z,15.92
2023-04-19T15:44:35.146Z,15.78
2023-04-19T15:47:01.104Z,15.83
2023-04-19T15:49:27.033Z,15.80
2023-04-19T15:51:52.816Z,15.70
2023-04-19T15:54:20.833Z,15.18
2023-04-19T15:56:46.709Z,14.45
2023-04-19T15:59:12.499Z,14.25
2023-04-19T16:01:38.758Z,14.24
2023-04-19T16:04:05.148Z,14.60
2023-04-19T16:06:31.203Z,14.88
2023-04-19T16:08:57.050Z,15.05
2023-04-19T16:11:23.093Z,15.13
2023-04-19T16:13:49.072Z,14.67
2023-04-19T16:16:15.143Z,14.82
2023-04-19T16:18:40.934Z,14.85
2023-04-19T16:21:06.682Z,14.41
2023-04-19T16:23:33.548Z,14.27
2023-04-19T16:25:59.397Z,14.43
2023-04-19T16:28:25.307Z,14.53
2023-04-19T16:30:51.426Z,14.78
2023-04-19T16:33:17.350Z,15.01
2023-04-19T16:35:43.988Z,14.52
2023-04-19T16:38:10.073Z,14.03
2023-04-19T16:40:35.972Z,13.90
2023-04-19T16:43:01.932Z,13.71
2023-04-19T16:45:27.846Z,13.31
2023-04-19T16:47:53.707Z,13.60
2023-04-19T16:50:19.821Z,13.57
2023-04-19T16:52:45.656Z,13.19
2023-04-19T16:55:11.546Z,12.74
2023-04-19T16:57:37.465Z,12.23
2023-04-19T17:00:05.835Z,11.90
2023-04-19T17:02:32.912Z,12.07
2023-04-19T17:04:59.202Z,12.12
2023-04-19T17:07:25.135Z,11.70
2023-04-19T17:09:51.006Z,11.61
2023-04-19T17:12:16.866Z,11.51
2023-04-19T17:14:42.628Z,11.52
2023-04-19T17:17:08.542Z,11.50
2023-04-19T17:19:35.779Z,11.27
2023-04-19T17:22:04.517Z,11.61
2023-04-19T17:24:31.784Z,11.80
2023-04-19T17:26:59.598Z,11.73
2023-04-19T17:29:25.513Z,11.75
2023-04-19T17:31:51.375Z,11.65
2023-04-19T17:34:17.800Z,11.21
2023-04-19T17:36:43.691Z,11.20
2023-04-19T17:39:10.417Z,11.23
2023-04-19T17:41:36.308Z,11.19
2023-04-19T17:44:02.226Z,11.26
2023-04-19T17:46:28.236Z,11.09
2023-04-19T17:48:54.803Z,11.09
2023-04-19T17:51:20.643Z,11.06
2023-04-19T17:53:46.861Z,10.87
2023-04-19T17:56:12.636Z,10.88
2023-04-19T17:58:38.390Z,10.93
2023-04-19T18:01:05.802Z,10.82
2023-04-19T18:03:31.869Z,10.94
2023-04-19T18:05:57.960Z,10.84
2023-04-19T18:08:23.970Z,10.97
2023-04-19T18:10:50.375Z,10.88
2023-04-19T18:13:16.334Z,10.57
2023-04-19T18:15:42.333Z,10.71
2023-04-19T18:18:08.384Z,10.53
2023-04-19T18:20:34.447Z,10.34
2023-04-19T18:23:00.927Z,10.13
2023-04-19T18:25:28.387Z,10.09
2023-04-19T18:27:54.849Z,10.05
2023-04-19T18:30:21.124Z,9.99
2023-04-19T18:32:46.953Z,9.94
2023-04-19T18:35:12.958Z,9.97
2023-04-19T18:37:38.820Z,9.85
2023-04-19T18:40:06.430Z,9.79
2023-04-19T18:42:32.436Z,9.64
2023-04-19T18:44:58.261Z,9.53
2023-04-19T18:47:27.413Z,9.48
2023-04-19T18:50:04.422Z,9.50
2023-04-19T18:52:31.606Z,9.43
2023-04-19T18:54:57.671Z,9.45
2023-04-19T18:57:27.195Z,9.37
2023-04-19T18:59:55.429Z,9.48
2023-04-19T19:02:21.305Z,9.32
2023-04-19T19:04:56.270Z,9.16
2023-04-19T19:07:35.614Z,9.14
2023-04-19T19:10:10.696Z,9.07
2023-04-19T19:12:43.969Z,9.19
2023-04-19T19:15:09.910Z,9.21
2023-04-19T19:17:35.897Z,9.02
2023-04-19T19:20:02.028Z,8.98
2023-04-19T19:22:29.167Z,9.02
2023-04-19T19:24:55.860Z,9.01
2023-04-19T19:27:21.691Z,8.88
2023-04-19T19:29:47.804Z,8.76
2023-04-19T19:32:13.755Z,8.68
2023-04-19T19:34:51.272Z,8.79
2023-04-19T19:37:20.271Z,8.78
2023-04-19T19:39:46.526Z,8.88
2023-04-19T19:42:15.479Z,8.86
2023-04-19T19:44:41.323Z,8.83
2023-04-19T19:47:10.311Z,8.79
2023-04-19T19:49:51.952Z,8.76
2023-04-19T19:52:22.519Z,8.61
2023-04-19T19:54:48.332Z,8.52
2023-04-19T19:57:48.419Z,8.57
2023-04-19T20:00:18.155Z,8.48
2023-04-19T20:02:54.883Z,8.43
2023-04-19T20:05:23.336Z,8.51
2023-04-19T20:10:18.922Z,8.45
2023-04-19T20:12:46.451Z,8.32
2023-04-19T20:15:12.825Z,8.40
2023-04-19T20:17:39.954Z,8.30
2023-04-19T20:20:10.565Z,8.20
2023-04-19T20:22:36.998Z,8.23
2023-04-19T20:25:02.973Z,8.20
2023-04-19T20:27:28.821Z,8.06
2023-04-19T20:29:55.374Z,8.21
2023-04-19T20:32:21.562Z,8.08
2023-04-19T20:34:47.795Z,8.17
2023-04-19T20:37:13.736Z,8.05
2023-04-19T20:39:39.879Z,7.97
2023-04-19T20:42:06.653Z,7.88
2023-04-19T20:44:33.273Z,7.89
2023-04-19T20:46:59.201Z,7.82
2023-04-19T20:49:25.152Z,7.82
2023-04-19T20:51:51.255Z,7.90
2023-04-19T20:54:18.009Z,7.75
2023-04-19T20:56:43.928Z,7.56
2023-04-19T20:59:09.782Z,7.82
2023-04-19T21:01:35.924Z,7.93
2023-04-19T21:04:01.967Z,7.90
2023-04-19T21:06:30.813Z,7.65
2023-04-19T21:08:58.549Z,7.80
2023-04-19T21:11:24.559Z,7.66
2023-04-19T21:13:50.384Z,7.73
2023-04-19T21:16:16.284Z,7.70
2023-04-19T21:18:42.101Z,7.78
2023-04-19T21:21:07.991Z,7.71
2023-04-19T21:23:34.159Z,7.88
2023-04-19T21:26:01.795Z,7.76
2023-04-19T21:28:27.713Z,7.61
2023-04-19T21:30:54.713Z,7.64
2023-04-19T21:33:20.531Z,7.70
2023-04-19T21:35:46.333Z,7.57
2023-04-19T21:38:12.222Z,7.51
2023-04-19T21:40:38.040Z,7.54
2023-04-19T21:43:03.919Z,7.51
2023-04-19T21:45:29.791Z,7.50
2023-04-19T21:47:55.597Z,7.34
2023-04-19T21:50:21.449Z,7.28
2023-04-19T21:52:47.220Z,7.47
2023-04-19T21:55:13.091Z,7.45
2023-04-19T21:57:38.905Z,7.47
2023-04-19T22:00:08.560Z,7.47
2023-04-19T22:02:35.014Z,7.31
2023-04-19T22:05:02.057Z,7.43
2023-04-19T22:07:30.347Z,7.35
2023-04-19T22:09:57.229Z,7.38
2023-04-19T22:12:23.863Z,7.29
2023-04-19T22:14:50.598Z,7.21
2023-04-19T22:17:19.171Z,7.14
2023-04-19T22:19:46.182Z,7.16
2023-04-19T22:22:12.092Z,7.28
2023-04-19T22:24:46.761Z,7.12
2023-04-19T22:27:19.435Z,7.07
2023-04-19T22:29:45.191Z,7.17
2023-04-19T22:32:11.042Z,7.16
2023-04-19T22:34:36.941Z,7.27
2023-04-19T22:37:02.811Z,7.00
2023-04-19T22:39:28.614Z,7.07
2023-04-19T22:41:54.562Z,6.98
2023-04-19T22:44:20.580Z,7.03
2023-04-19T22:46:46.705Z,6.85
2023-04-19T22:49:12.554Z,6.70
2023-04-19T22:51:38.741Z,6.87
2023-04-19T22:54:04.793Z,6.92
2023-04-19T22:56:30.672Z,6.70
2023-04-19T22:58:56.801Z,6.73
2023-04-19T23:01:22.668Z,6.72
2023-04-19T23:03:48.630Z,6.59
2023-04-19T23:06:17.163Z,6.65
2023-04-19T23:08:43.037Z,6.67
2023-04-19T23:11:11.621Z,6.49
2023-04-19T23:13:37.482Z,6.50
2023-04-19T23:16:07.164Z,6.33
2023-04-19T23:18:33.029Z,6.36
2023-04-19T23:21:00.586Z,6.44
2023-04-19T23:23:26.377Z,6.43
2023-04-19T23:25:52.182Z,6.59
2023-04-19T23:28:17.953Z,6.53
2023-04-19T23:30:43.683Z,6.25
2023-04-19T23:33:09.659Z,6.18
2023-04-19T23:35:35.435Z,6.17
2023-04-19T23:38:01.198Z,6.22
2023-04-19T23:40:27.155Z,6.06
2023-04-19T23:42:52.899Z,6.17
2023-04-19T23:45:18.850Z,6.20
2023-04-19T23:47:44.674Z,6.14
2023-04-19T23:50:10.628Z,6.25
2023-04-19T23:52:36.519Z,6.32
2023-04-19T23:55:02.537Z,6.46
2023-04-19T23:57:28.440Z,6.40
2023-04-19T23:59:54.171Z,6.27
